Flight Track Log - Related Links

Times and Time Zones

All times are in EST time to prevent confusion due to time zone crossing. See the UCA3596 flight status page for this flight to view local times or setup timezone preferences in your user account.

Time Position Orientation Groundspeed Altitude Reporting Facility
EST Latitude Longitude Course Direction KTS MPH feet Rate Location/Type
Fri 01:32:00 PM 40.0385 -76.9815 19° North  Level Estimated
Fri 01:33:00 PM 40.1066 -76.9511 19° North  Level Estimated
Fri 01:34:00 PM 40.1747 -76.9206 19° North  Level Estimated
Fri 01:35:00 PM 40.2428 -76.8901 19° North  Level Estimated
Fri 01:36:00 PM 40.3109 -76.8595 19° North  Level Estimated
Fri 01:37:00 PM 40.3790 -76.8288 19° North  Level Estimated
Fri 01:38:00 PM 40.4471 -76.7981 19° North  Level Estimated
Fri 01:39:00 PM 40.5151 -76.7673 19° North  Level Estimated
Fri 01:40:00 PM 40.5832 -76.7365 19° North  Level Estimated
Fri 01:41:00 PM 40.6513 -76.7056 19° North  Level Estimated
Fri 01:42:00 PM 40.7193 -76.6746 19° North  Level Estimated
Fri 01:43:00 PM 40.7874 -76.6436 19° North  Level Estimated
Fri 01:44:00 PM 40.8554 -76.6125 19° North  Level Estimated
Fri 01:45:00 PM 40.9234 -76.5814 19° North  Level Estimated
Fri 01:46:00 PM 40.9914 -76.5501 19° North  Level Estimated
Fri 01:47:00 PM 41.0594 -76.5188 19° North  Level Estimated
Fri 01:48:00 PM 41.1274 -76.4875 19° North  Level Estimated
Fri 01:49:00 PM 41.1954 -76.4561 19° North  Level Estimated
Fri 01:50:00 PM 41.2634 -76.4246 19° North  Level Estimated
Fri 01:51:00 PM 41.3314 -76.3930 19° North  Level Estimated
Fri 01:52:00 PM 41.3993 -76.3614 19° North  Level Estimated
Fri 01:53:00 PM 41.4673 -76.3298 19° North  Level Estimated
Fri 01:54:00 PM 41.5353 -76.2980 19° North  Level Estimated
Fri 01:55:00 PM 41.6032 -76.2662 19° North  Level Estimated
Fri 01:56:00 PM 41.6711 -76.2343 19° North  Level Estimated
Fri 01:57:00 PM 41.7391 -76.2024 19° North  Level Estimated
Fri 01:58:00 PM 41.8070 -76.1703 19° North  Level Estimated
Fri 01:59:00 PM 41.8749 -76.1383 19° North  Level Estimated
Fri 02:00:00 PM 41.9427 -76.1061 19° North  Level Estimated
Fri 02:01:00 PM 42.0106 -76.0739 19° North  Level Estimated
Fri 02:02:00 PM 42.0785 -76.0416 19° North  Level Estimated
Fri 02:03:00 PM 42.1464 -76.0093 19° North  Level Estimated
Fri 02:04:00 PM 42.2084 -75.9796 19° North  Level Estimated
Fri 02:05:00 PM 42.2084 -75.9796 35° Northeast  Level Estimated
Fri 02:06:00 PM 42.2084 -75.9796 35° Northeast  Level Estimated
Fri 02:07:00 PM 42.2084 -75.9796 35° Northeast  Level Estimated
Fri 02:08:00 PM 42.2084 -75.9796 35° Northeast  Level Estimated
Fri 02:09:00 PM 42.2084 -75.9796 35° Northeast  Level Estimated
Fri 02:10:00 PM 42.2084 -75.9796 35° Northeast  Level Estimated
Fri 02:11:00 PM 42.2084 -75.9796 35° Northeast  Level Estimated
Fri 02:12:00 PM 42.2084 -75.9796 35° Northeast  Level Estimated
Fri 02:13:00 PM 42.2084 -75.9796 35° Northeast  Level Estimated
Fri 02:14:00 PM 42.2084 -75.9796 35° Northeast  Level Estimated
Fri 02:15:00 PM 42.2084 -75.9796 35° Northeast  Level Estimated
Fri 02:16:00 PM 42.2084 -75.9796 35° Northeast  Level Estimated
Fri 02:17:00 PM 42.2084 -75.9796 35° Northeast  Level Estimated
Fri 02:18:00 PM 42.2084 -75.9796 35° Northeast  Level Estimated
Fri 02:19:00 PM 42.2084 -75.9796 35° Northeast  Level Estimated
Fri 02:20:00 PM 42.2084 -75.9796 35° Northeast  Level Estimated

Login

Don't have an account? Register now (free) for customized features, flight alerts, and more!